Estación Meteorológica Peña el Pijo (Robertgarden) [ 07/23/19 13:39:18 CEST ]

Fecha Hora Presion(HPa) Temp (°C) Humedad % Rocio (°C) Viento ( m/s) Direccion Lluvia 1Hora(mm) Lluvia 24H(mm) LLuvia Total(mm)
2019-Mar-12 01:01:44 1019.100 5.4 75 1.3         184.40
2019-Mar-12 02:10:08 1019.000 4.1 77 0.4         184.40
2019-Mar-12 03:01:42 1018.700 4.0 79 0.7         184.40
2019-Mar-12 04:01:41 1018.400 3.8 81 0.9         184.40
2019-Mar-12 05:01:41 1018.200 3.6 82 0.8         184.40
2019-Mar-12 06:03:12 1018.300 3.2 83 0.6         184.40
2019-Mar-12 07:01:37 1018.100 3.4 83 0.8         184.40
2019-Mar-12 08:01:42 1018.000 3.2 84 0.7         184.40
2019-Mar-12 09:01:49 1017.600 7.8 86 5.6         184.40
2019-Mar-12 10:01:51 1017.600 14.9 64 8.1         184.40
2019-Mar-12 11:01:58 1017.100 20.3 42 6.9         184.40
2019-Mar-12 12:01:43 1016.800 22.1 35 5.8         184.40
2019-Mar-12 13:01:45 1016.600 21.9 30 3.6 0.3 NW     184.40
2019-Mar-12 14:01:48 1015.600 22.6 26 1.9 0.6 NNW     184.40
2019-Mar-12 15:01:53 1015.200 23.2 23 0.7         184.40
2019-Mar-12 16:01:42 1014.700 22.4 23 -0.5 0.5 NNW     184.40
2019-Mar-12 17:01:35 1014.200 21.5 23 -0.7         184.40
2019-Mar-12 18:01:28 1014.100 19.9 28 0.7         184.40
2019-Mar-12 19:01:23 1014.100 17.2 37 2.3         184.40
2019-Mar-12 20:01:50 1014.500 13.4 44 1.3         184.40
2019-Mar-12 21:01:16 1014.500 11.8 54 2.8         184.40
2019-Mar-12 22:01:11 1014.800 13.1 54 3.9         184.40
2019-Mar-12 23:01:12 1014.600 12.9 57 4.5         184.40

Temperatura Máxima:23°    Temperatura Mínima:
Presión Máxima:1019.100 Hpa    Presión Mínima:1014.100 Hpa


Volver